Time;durP1;ratioP1;P1;durP2;ratioP2;P2;SDS_P1;SDS_P2;PMS_P1;PMS_P2;Temp;Humidity;BMP_temperature;BMP_pressure;BME280_temperature;BME280_humidity;BME280_pressure;Samples;Min_cycle;Max_cycle;Signal;HPM_P1;HPM_P2
2021/10/21 00:01:17;;;;;;;8.63;7.73;;;17.10;99.90;;;;;;5111321;28;20165;-48
2021/10/21 00:03:43;;;;;;;9.30;8.40;;;16.80;99.90;;;;;;5111063;28;20168;-48
2021/10/21 00:06:09;;;;;;;10.43;8.37;;;16.70;99.90;;;;;;5107581;28;20903;-54
2021/10/21 00:08:34;;;;;;;9.40;8.60;;;16.70;99.90;;;;;;5102787;28;20198;-52
2021/10/21 00:11:00;;;;;;;7.63;6.93;;;16.60;99.90;;;;;;5111196;28;20214;-50
2021/10/21 00:13:25;;;;;;;8.50;7.70;;;16.70;99.90;;;;;;5111066;28;20663;-51
2021/10/21 00:15:51;;;;;;;6.93;6.33;;;16.60;99.90;;;;;;5110748;28;20164;-53
2021/10/21 00:18:18;;;;;;;12.00;7.37;;;16.70;99.90;;;;;;5109426;28;20187;-54
2021/10/21 00:20:44;;;;;;;8.23;7.43;;;16.50;99.90;;;;;;5110936;28;20293;-51
2021/10/21 00:23:09;;;;;;;9.30;7.10;;;16.70;99.90;;;;;;5110533;28;20856;-50
2021/10/21 00:25:35;;;;;;;6.50;5.87;;;16.70;99.90;;;;;;5110143;28;20406;-56
2021/10/21 00:28:01;;;;;;;8.10;7.30;;;16.50;99.90;;;;;;5110454;28;20366;-56
2021/10/21 00:30:27;;;;;;;7.70;6.73;;;16.50;99.90;;;;;;5110394;28;20218;-56
2021/10/21 00:32:53;;;;;;;6.57;5.97;;;16.60;99.90;;;;;;5110672;28;20196;-56
2021/10/21 00:35:18;;;;;;;6.97;6.23;;;16.70;99.90;;;;;;5109077;28;20776;-56
2021/10/21 00:37:44;;;;;;;6.80;6.20;;;16.70;99.90;;;;;;5094907;28;20218;-57
2021/10/21 00:40:10;;;;;;;5.90;5.40;;;16.80;99.90;;;;;;5089827;28;20166;-53
2021/10/21 00:42:36;;;;;;;7.50;6.00;;;16.80;99.90;;;;;;5090476;28;20652;-53
2021/10/21 00:45:03;;;;;;;7.80;7.07;;;16.90;99.90;;;;;;5089909;28;20410;-57
2021/10/21 00:47:28;;;;;;;8.93;7.00;;;16.80;99.90;;;;;;5089739;28;20847;-55
2021/10/21 00:49:54;;;;;;;7.27;6.67;;;16.70;99.90;;;;;;5090019;28;20399;-52
2021/10/21 00:52:20;;;;;;;7.97;7.17;;;16.60;99.90;;;;;;5090450;28;20205;-56
2021/10/21 00:54:46;;;;;;;7.50;6.70;;;16.50;99.90;;;;;;5090977;28;20211;-57
2021/10/21 00:57:13;;;;;;;6.97;5.93;;;16.50;99.90;;;;;;5090574;28;20535;-53
2021/10/21 00:59:41;;;;;;;7.83;7.13;;;16.40;99.90;;;;;;5089305;28;20857;-55
2021/10/21 01:02:08;;;;;;;9.93;8.20;;;16.30;99.90;;;;;;5112505;28;20812;-55
2021/10/21 01:04:33;;;;;;;7.17;6.57;;;16.20;99.90;;;;;;5104788;28;20435;-56
2021/10/21 01:07:00;;;;;;;7.80;7.00;;;16.10;99.90;;;;;;5096211;28;20513;-52
2021/10/21 01:09:26;;;;;;;8.60;7.80;;;16.10;99.90;;;;;;5100110;28;20169;-57
2021/10/21 01:11:51;;;;;;;8.33;7.60;;;16.10;99.90;;;;;;5103495;28;20517;-57
2021/10/21 01:14:18;;;;;;;7.40;6.70;;;16.10;99.90;;;;;;5103552;28;20418;-56
2021/10/21 01:16:44;;;;;;;7.37;6.67;;;16.10;99.90;;;;;;5096259;28;20275;-57
2021/10/21 01:19:24;;;;;;;10.37;9.37;;;16.00;99.90;;;;;;5096477;28;20453;-53
2021/10/21 01:21:53;;;;;;;8.70;7.90;;;15.90;99.90;;;;;;5096120;28;20171;-56
2021/10/21 01:24:19;;;;;;;9.10;7.90;;;15.90;99.90;;;;;;5095785;28;20421;-56
2021/10/21 01:26:47;;;;;;;8.50;7.80;;;15.90;99.90;;;;;;5096228;28;20760;-54
2021/10/21 01:29:14;;;;;;;10.03;9.03;;;15.80;99.90;;;;;;5096509;28;20806;-57
2021/10/21 01:31:40;;;;;;;9.60;8.70;;;15.90;99.90;;;;;;5096169;28;20496;-56
2021/10/21 01:34:10;;;;;;;8.67;7.70;;;15.80;99.90;;;;;;5096251;28;20490;-57
2021/10/21 01:36:37;;;;;;;9.27;8.33;;;15.80;99.90;;;;;;5095870;28;20180;-57
2021/10/21 01:39:09;;;;;;;9.67;8.67;;;15.80;99.90;;;;;;5095256;28;20401;-54
2021/10/21 01:41:34;;;;;;;8.53;7.73;;;15.80;99.90;;;;;;5095787;28;20406;-56
2021/10/21 01:44:00;;;;;;;9.50;8.70;;;15.80;99.90;;;;;;5095553;28;20406;-58
2021/10/21 01:46:26;;;;;;;9.80;9.00;;;15.80;99.90;;;;;;5095704;28;20171;-55
2021/10/21 01:48:52;;;;;;;9.03;8.13;;;15.80;99.90;;;;;;5095527;28;20409;-57
2021/10/21 01:51:18;;;;;;;8.37;7.57;;;15.80;99.90;;;;;;5095752;28;20289;-56
2021/10/21 01:53:44;;;;;;;10.13;8.30;;;15.60;99.90;;;;;;5094738;28;20965;-55
2021/10/21 01:56:09;;;;;;;8.53;7.80;;;15.70;99.90;;;;;;5094088;28;20176;-55
2021/10/21 01:58:35;;;;;;;8.83;7.93;;;15.60;99.90;;;;;;5092004;28;20271;-56
2021/10/21 02:01:01;;;;;;;10.87;7.53;;;15.60;99.90;;;;;;5095427;28;20173;-51
2021/10/21 02:03:27;;;;;;;7.63;6.87;;;15.60;99.90;;;;;;5095514;28;20543;-53
2021/10/21 02:05:53;;;;;;;11.27;7.97;;;15.60;99.90;;;;;;5095634;28;20413;-57
2021/10/21 02:08:18;;;;;;;9.00;7.87;;;15.70;99.90;;;;;;5094876;28;20235;-51
2021/10/21 02:10:45;;;;;;;9.13;7.43;;;15.70;99.90;;;;;;5094877;28;20821;-56
2021/10/21 02:13:11;;;;;;;7.53;6.83;;;15.90;99.90;;;;;;5095199;28;20199;-55
2021/10/21 02:15:36;;;;;;;7.20;6.60;;;15.90;99.90;;;;;;5094162;28;20425;-54
2021/10/21 02:18:03;;;;;;;7.23;6.63;;;15.90;99.90;;;;;;5094875;28;20251;-51
2021/10/21 02:20:29;;;;;;;6.50;5.90;;;15.80;99.90;;;;;;5095188;28;20402;-52
2021/10/21 02:22:54;;;;;;;6.30;5.70;;;15.80;99.90;;;;;;5094851;28;20770;-53
2021/10/21 02:25:20;;;;;;;4.90;4.40;;;15.90;99.90;;;;;;5094814;28;20240;-57
2021/10/21 02:27:46;;;;;;;5.53;4.93;;;16.00;99.90;;;;;;5094561;28;20191;-56
2021/10/21 02:30:13;;;;;;;5.90;5.40;;;16.00;99.90;;;;;;5094621;28;20205;-54
2021/10/21 02:32:40;;;;;;;5.70;5.20;;;16.20;99.90;;;;;;5094250;28;20447;-55
2021/10/21 02:35:07;;;;;;;5.70;4.67;;;16.10;99.90;;;;;;5094420;28;20484;-57
2021/10/21 02:37:34;;;;;;;5.43;4.93;;;16.10;99.90;;;;;;5094228;28;20431;-56
2021/10/21 02:40:00;;;;;;;4.50;4.10;;;16.00;99.90;;;;;;5094093;28;20403;-56
2021/10/21 02:42:26;;;;;;;4.07;3.77;;;16.00;99.90;;;;;;5094394;28;20484;-55
2021/10/21 02:44:51;;;;;;;4.63;3.73;;;16.00;99.90;;;;;;5093045;28;20432;-55
2021/10/21 02:47:17;;;;;;;5.03;4.50;;;16.10;99.90;;;;;;5094293;28;20188;-56
2021/10/21 02:49:43;;;;;;;3.77;3.47;;;16.00;99.90;;;;;;5094182;28;20206;-57
2021/10/21 02:52:09;;;;;;;4.30;3.90;;;16.10;99.90;;;;;;5094217;28;20238;-57
2021/10/21 02:54:35;;;;;;;5.27;4.10;;;16.10;99.90;;;;;;5094015;28;20870;-56
2021/10/21 02:57:01;;;;;;;4.07;3.77;;;16.10;99.90;;;;;;5094371;28;20468;-57
2021/10/21 02:59:26;;;;;;;4.93;4.40;;;16.10;99.90;;;;;;5087841;28;20450;-57
2021/10/21 03:01:53;;;;;;;5.03;4.50;;;16.10;99.90;;;;;;5078246;28;20196;-55
2021/10/21 03:04:18;;;;;;;11.60;4.73;;;16.10;99.90;;;;;;5074106;28;20161;-56
2021/10/21 03:06:44;;;;;;;4.60;4.20;;;16.10;99.90;;;;;;5080262;28;20827;-55
2021/10/21 03:09:09;;;;;;;4.23;3.83;;;16.20;99.90;;;;;;5093540;28;20172;-55
2021/10/21 03:11:35;;;;;;;3.53;3.23;;;16.20;99.90;;;;;;5094193;28;20641;-54
2021/10/21 03:14:01;;;;;;;4.03;3.73;;;16.30;99.90;;;;;;5093791;28;20210;-52
2021/10/21 03:16:30;;;;;;;4.47;4.00;;;16.30;99.90;;;;;;5093845;28;20173;-54
2021/10/21 03:18:56;;;;;;;4.00;3.57;;;16.10;99.90;;;;;;5094290;28;20406;-52
2021/10/21 03:21:22;;;;;;;3.97;3.50;;;16.20;99.90;;;;;;5092378;28;20448;-57
2021/10/21 03:23:47;;;;;;;4.30;3.90;;;16.30;99.90;;;;;;5093599;28;20407;-56
2021/10/21 03:26:13;;;;;;;4.10;3.43;;;16.30;99.90;;;;;;5093366;28;20173;-56
2021/10/21 03:28:39;;;;;;;5.20;3.77;;;16.30;99.90;;;;;;5093351;28;20181;-57
2021/10/21 03:31:04;;;;;;;3.03;2.73;;;16.40;99.90;;;;;;5093736;28;20190;-56
2021/10/21 03:33:30;;;;;;;3.33;3.07;;;16.50;99.90;;;;;;5093666;28;20185;-56
2021/10/21 03:35:57;;;;;;;4.10;2.70;;;16.50;99.90;;;;;;5094018;28;20214;-57
2021/10/21 03:38:22;;;;;;;3.00;2.80;;;16.50;99.90;;;;;;5093156;28;20200;-53
2021/10/21 03:40:48;;;;;;;3.23;2.77;;;16.50;99.90;;;;;;5093594;28;20395;-56
2021/10/21 03:43:14;;;;;;;1.70;1.60;;;16.40;99.90;;;;;;5093891;28;20651;-57
2021/10/21 03:45:40;;;;;;;3.17;2.13;;;16.40;99.90;;;;;;5093626;28;20165;-54
2021/10/21 03:48:05;;;;;;;2.80;1.73;;;16.30;99.90;;;;;;5093965;28;20189;-58
2021/10/21 03:50:31;;;;;;;2.40;2.17;;;16.20;99.90;;;;;;5090538;28;20589;-57
2021/10/21 03:52:57;;;;;;;2.33;1.80;;;16.30;99.90;;;;;;5093634;28;20205;-53
2021/10/21 03:55:22;;;;;;;2.10;1.73;;;16.30;99.90;;;;;;5093133;28;20174;-56
2021/10/21 03:57:49;;;;;;;1.47;1.33;;;16.30;99.90;;;;;;5093549;28;20215;-55
2021/10/21 04:00:15;;;;;;;2.60;1.50;;;16.30;99.90;;;;;;5093971;28;20516;-54
2021/10/21 04:02:40;;;;;;;2.87;1.43;;;16.30;99.90;;;;;;5093861;28;20428;-57
2021/10/21 04:05:07;;;;;;;1.47;1.37;;;16.30;99.90;;;;;;5093225;28;20399;-53
2021/10/21 04:07:34;;;;;;;1.53;1.43;;;16.20;99.90;;;;;;5091930;28;20216;-57
2021/10/21 04:10:00;;;;;;;1.60;1.30;;;16.20;99.90;;;;;;5093023;28;20403;-56
2021/10/21 04:12:26;;;;;;;1.87;1.30;;;16.20;99.90;;;;;;5093272;28;20788;-56
2021/10/21 04:14:52;;;;;;;1.70;1.27;;;16.10;99.90;;;;;;5093518;28;20180;-56
2021/10/21 04:17:19;;;;;;;1.77;1.30;;;16.10;99.90;;;;;;5092038;28;20426;-56
2021/10/21 04:19:46;;;;;;;1.40;1.10;;;16.10;99.90;;;;;;5093913;28;20230;-55
2021/10/21 04:22:12;;;;;;;2.70;1.40;;;16.10;99.90;;;;;;5093800;28;20768;-58
2021/10/21 04:24:37;;;;;;;2.10;1.27;;;16.00;99.90;;;;;;5088410;28;20422;-57
2021/10/21 04:27:03;;;;;;;2.67;1.60;;;15.90;99.90;;;;;;5081773;28;20291;-55
2021/10/21 04:29:29;;;;;;;2.17;1.10;;;15.90;99.90;;;;;;5073324;28;20169;-57
2021/10/21 04:31:54;;;;;;;2.33;1.20;;;15.90;99.90;;;;;;5103641;23;20207;-53
2021/10/21 04:34:20;;;;;;;1.50;1.10;;;15.80;99.90;;;;;;4989605;28;20275;-51
2021/10/21 04:36:46;;;;;;;2.43;0.93;;;15.80;99.90;;;;;;4994079;28;20171;-52
2021/10/21 04:39:11;;;;;;;1.73;1.10;;;15.70;99.90;;;;;;4996573;28;20171;-55
2021/10/21 04:41:37;;;;;;;1.60;0.90;;;15.70;99.90;;;;;;4996323;28;20169;-54
2021/10/21 04:44:03;;;;;;;1.70;0.87;;;15.50;99.90;;;;;;4997453;28;20193;-50
2021/10/21 04:46:29;;;;;;;3.37;1.80;;;15.50;99.90;;;;;;4997042;28;20668;-52
2021/10/21 04:48:55;;;;;;;1.67;1.17;;;15.40;99.90;;;;;;4996761;28;20414;-52
2021/10/21 04:51:21;;;;;;;2.80;0.97;;;15.40;99.90;;;;;;4997220;28;20576;-52
2021/10/21 04:53:46;;;;;;;1.83;1.10;;;15.20;99.90;;;;;;4997133;28;20465;-54
2021/10/21 04:56:12;;;;;;;4.00;1.60;;;15.20;99.90;;;;;;4996402;28;20205;-53
2021/10/21 04:58:38;;;;;;;4.30;2.10;;;15.20;99.90;;;;;;4996574;28;20174;-54
2021/10/21 05:01:04;;;;;;;2.50;1.30;;;15.00;99.90;;;;;;4996751;28;20513;-50
2021/10/21 05:03:29;;;;;;;6.30;4.90;;;15.00;99.90;;;;;;4996457;28;20196;-52
2021/10/21 05:05:55;;;;;;;33.20;29.77;;;15.00;99.90;;;;;;4996889;28;20170;-54
2021/10/21 05:08:20;;;;;;;17.37;13.57;;;15.10;99.90;;;;;;4996866;28;20162;-53
2021/10/21 05:10:46;;;;;;;47.50;35.43;;;15.00;99.90;;;;;;4996281;28;20180;-53
2021/10/21 05:13:12;;;;;;;14.93;11.50;;;14.90;99.90;;;;;;4995350;28;20283;-54
2021/10/21 05:15:38;;;;;;;36.73;32.20;;;14.80;99.90;;;;;;4996724;28;20195;-55
2021/10/21 05:18:04;;;;;;;55.47;46.33;;;;;;;;;;4996155;28;20420;-56
2021/10/21 05:20:31;;;;;;;6.53;3.50;;;;;;;;;;4996745;28;20828;-52
2021/10/21 05:22:58;;;;;;;6.13;4.80;;;;;;;;;;4995992;28;20421;-50
2021/10/21 05:25:24;;;;;;;5.50;4.87;;;;;;;;;;4995677;28;20426;-54
2021/10/21 05:27:50;;;;;;;5.67;4.63;;;;;;;;;;4996262;28;20402;-54
2021/10/21 05:30:16;;;;;;;3.67;1.63;;;;;;;;;;4996280;28;20460;-53
2021/10/21 05:32:42;;;;;;;3.07;1.27;;;;;;;;;;4995294;28;20603;-53
2021/10/21 05:35:08;;;;;;;5.23;1.33;;;;;;;;;;4996227;28;20438;-49
2021/10/21 05:37:34;;;;;;;4.87;1.30;;;;;;;;;;4994560;28;20468;-50
2021/10/21 05:40:00;;;;;;;8.83;1.60;;;;;;;;;;4995860;28;20420;-54
2021/10/21 05:42:27;;;;;;;3.17;1.33;;;;;;;;;;4995620;28;20431;-52
2021/10/21 05:44:53;;;;;;;3.93;1.10;;;;;;;;;;4994510;28;20448;-53
2021/10/21 05:47:19;;;;;;;2.80;1.13;;;;;;;;;;4995498;28;20438;-55
2021/10/21 05:49:46;;;;;;;3.90;1.00;;;;;;;;;;4995664;28;20417;-53
2021/10/21 05:52:12;;;;;;;3.23;1.23;;;;;;;;;;4993688;28;20466;-56
2021/10/21 05:54:38;;;;;;;5.20;1.50;;;;;;;;;;4994964;28;20406;-55
2021/10/21 05:57:04;;;;;;;8.43;1.40;;;;;;;;;;4995257;28;20405;-52
2021/10/21 05:59:30;;;;;;;3.83;1.10;;;;;;;;;;4996281;28;20431;-50
2021/10/21 06:01:56;;;;;;;4.83;1.27;;;;;;;;;;4995530;28;20407;-51
2021/10/21 06:04:22;;;;;;;4.70;1.10;;;;;;;;;;4995129;28;20405;-55
2021/10/21 06:06:48;;;;;;;3.40;1.30;;;;;;;;;;4995299;28;20404;-50
2021/10/21 06:09:14;;;;;;;4.67;1.47;;;;;;;;;;4995291;28;20430;-50
2021/10/21 06:11:40;;;;;;;6.10;1.53;;;;;;;;;;4995371;28;20404;-52
2021/10/21 06:14:06;;;;;;;5.73;1.47;;;;;;;;;;4995106;28;20545;-54
2021/10/21 06:16:33;;;;;;;6.17;1.90;;;;;;;;;;4995401;28;20410;-56
2021/10/21 06:18:59;;;;;;;5.27;1.33;;;;;;;;;;4996095;28;20930;-51
2021/10/21 06:21:27;;;;;;;5.00;1.87;;;;;;;;;;4994523;28;20424;-55
2021/10/21 06:23:53;;;;;;;9.67;1.77;;;;;;;;;;4995204;28;20865;-52
2021/10/21 06:26:20;;;;;;;9.40;1.30;;;;;;;;;;4994866;28;20434;-55
2021/10/21 06:28:48;;;;;;;4.63;1.33;;;;;;;;;;4994929;28;20405;-55
2021/10/21 06:31:15;;;;;;;4.40;1.10;;;;;;;;;;4995488;28;20829;-53
2021/10/21 06:33:41;;;;;;;4.63;1.20;;;;;;;;;;4994212;28;20474;-51
2021/10/21 06:36:07;;;;;;;2.90;1.20;;;;;;;;;;5010251;28;20413;-55
2021/10/21 06:38:33;;;;;;;3.30;1.20;;;;;;;;;;4994516;28;20447;-52
2021/10/21 06:40:59;;;;;;;7.23;1.50;;;;;;;;;;4994546;28;20436;-53
2021/10/21 06:43:25;;;;;;;6.10;1.70;;;;;;;;;;4994609;28;20434;-55
2021/10/21 06:45:52;;;;;;;7.60;1.60;;;;;;;;;;4994690;28;20410;-50
2021/10/21 06:48:18;;;;;;;3.43;1.33;;;;;;;;;;4994326;28;20403;-54
2021/10/21 06:50:44;;;;;;;6.80;1.60;;;;;;;;;;4995071;28;20470;-54
2021/10/21 06:53:10;;;;;;;5.17;1.30;;;;;;;;;;4994330;28;20457;-58
2021/10/21 06:55:36;;;;;;;5.80;1.30;;;;;;;;;;4994708;28;20438;-51
2021/10/21 06:58:02;;;;;;;5.83;1.50;;;;;;;;;;4994815;28;20398;-50
2021/10/21 07:00:29;;;;;;;2.87;1.17;;;;;;;;;;4994934;28;20439;-53
2021/10/21 07:02:57;;;;;;;6.17;1.27;;;;;;;;;;4993867;28;20435;-54
2021/10/21 07:05:24;;;;;;;5.10;2.10;;;;;;;;;;4994310;28;20418;-55
2021/10/21 07:07:50;;;;;;;4.10;1.20;;;;;;;;;;4994426;28;20411;-52
2021/10/21 07:10:16;;;;;;;6.27;1.50;;;;;;;;;;4994030;28;20471;-51
2021/10/21 07:12:45;;;;;;;5.60;1.50;;;;;;;;;;4993839;28;20951;-57
2021/10/21 07:15:11;;;;;;;4.50;1.90;;;;;;;;;;4994573;28;20403;-53
2021/10/21 07:17:37;;;;;;;4.93;1.70;;;;;;;;;;4994141;28;20417;-49
2021/10/21 07:20:04;;;;;;;4.00;1.57;;;;;;;;;;4993842;28;20465;-52
2021/10/21 07:22:30;;;;;;;5.80;1.60;;;;;;;;;;4993905;28;20434;-54
2021/10/21 07:24:56;;;;;;;2.80;1.40;;;;;;;;;;4993399;28;20422;-52
2021/10/21 07:27:22;;;;;;;4.70;1.40;;;;;;;;;;4994046;28;20446;-51
2021/10/21 07:29:48;;;;;;;7.53;1.60;;;;;;;;;;4994379;28;20435;-53
2021/10/21 07:32:15;;;;;;;3.83;1.50;;;;;;;;;;4993701;28;20990;-51
2021/10/21 07:34:42;;;;;;;4.63;2.00;;;;;;;;;;4993634;28;20394;-52
2021/10/21 07:37:08;;;;;;;5.67;1.43;;;;;;;;;;4994800;28;20799;-55
2021/10/21 07:39:34;;;;;;;3.47;1.07;;;;;;;;;;4993712;28;20411;-51
2021/10/21 07:42:02;;;;;;;4.33;1.20;;;;;;;;;;4993755;28;20399;-52
2021/10/21 07:44:32;;;;;;;4.60;1.50;;;;;;;;;;4995049;28;20496;-53
2021/10/21 07:46:59;;;;;;;5.37;1.20;;;;;;;;;;4994888;28;20487;-49
2021/10/21 07:49:25;;;;;;;7.13;1.73;;;;;;;;;;4994206;28;20405;-49
2021/10/21 07:51:51;;;;;;;7.00;1.25;;;15.40;99.90;;;;;;4993843;28;20412;-50
2021/10/21 07:54:16;;;;;;;5.37;1.20;;;15.30;99.90;;;;;;4993954;28;20308;-54
2021/10/21 07:56:42;;;;;;;3.00;1.10;;;15.30;99.90;;;;;;4993955;28;20643;-56
2021/10/21 07:59:07;;;;;;;3.90;1.77;;;15.30;99.90;;;;;;4993527;28;20163;-52
2021/10/21 08:01:33;;;;;;;2.80;1.00;;;15.30;99.90;;;;;;4993689;28;20638;-54
2021/10/21 08:03:59;;;;;;;3.00;1.10;;;15.30;99.90;;;;;;4993790;28;20318;-55
2021/10/21 08:06:26;;;;;;;5.13;0.90;;;15.30;99.90;;;;;;4993951;28;20601;-52
2021/10/21 08:08:53;;;;;;;4.30;1.43;;;15.30;99.90;;;;;;4993536;28;20180;-54
2021/10/21 08:11:18;;;;;;;3.20;1.43;;;15.20;99.90;;;;;;4993544;28;20403;-54
2021/10/21 08:13:44;;;;;;;6.50;1.00;;;15.20;99.90;;;;;;4994341;28;20477;-52
2021/10/21 08:16:09;;;;;;;2.90;0.80;;;15.20;99.90;;;;;;4998514;28;20179;-52
2021/10/21 08:18:35;;;;;;;7.80;1.30;;;15.20;99.90;;;;;;4997280;28;20174;-53
2021/10/21 08:21:01;;;;;;;4.80;1.07;;;15.30;99.90;;;;;;4997598;28;20178;-52
2021/10/21 08:23:26;;;;;;;3.20;1.43;;;15.30;99.90;;;;;;4997699;28;20242;-54
2021/10/21 08:25:52;;;;;;;2.60;1.10;;;15.20;99.90;;;;;;4997316;28;20174;-51
2021/10/21 08:28:18;;;;;;;3.87;0.90;;;15.10;99.90;;;;;;4997454;28;20178;-54
2021/10/21 08:30:44;;;;;;;1.17;0.70;;;15.20;99.90;;;;;;4997315;28;20523;-56
2021/10/21 08:33:14;;;;;;;4.13;0.90;;;15.30;99.90;;;;;;4996828;28;20217;-58
2021/10/21 08:35:40;;;;;;;2.40;1.10;;;15.30;99.90;;;;;;4997580;28;20392;-55
2021/10/21 08:38:06;;;;;;;1.90;0.90;;;15.30;99.90;;;;;;4997482;28;20397;-54
2021/10/21 08:40:34;;;;;;;1.97;1.00;;;15.40;99.90;;;;;;4997148;28;20903;-53
2021/10/21 08:43:01;;;;;;;2.33;0.90;;;15.30;99.90;;;;;;4996737;28;20467;-57
2021/10/21 08:45:27;;;;;;;3.17;1.00;;;15.20;99.90;;;;;;4997126;28;20412;-59
2021/10/21 08:47:56;;;;;;;3.40;0.93;;;15.10;99.90;;;;;;4997053;28;20411;-56
2021/10/21 08:50:21;;;;;;;1.70;0.60;;;15.10;99.90;;;;;;4996912;28;20172;-52
2021/10/21 08:52:47;;;;;;;2.70;0.90;;;15.10;99.90;;;;;;4997163;28;20462;-56
2021/10/21 08:55:14;;;;;;;1.77;0.80;;;15.20;99.90;;;;;;4995319;28;20232;-53
2021/10/21 08:57:39;;;;;;;2.63;0.80;;;15.10;99.90;;;;;;4996856;28;20213;-55
2021/10/21 09:00:06;;;;;;;1.73;1.10;;;15.00;99.90;;;;;;4996686;28;20415;-53
2021/10/21 09:02:54;;;;;;;6.40;0.60;;;14.50;99.90;;;;;;4996669;28;20199;-49
2021/10/21 09:05:35;;;;;;;4.43;0.70;;;14.20;99.90;;;;;;4997313;28;20380;-50
2021/10/21 09:08:14;;;;;;;2.30;0.77;;;14.10;99.90;;;;;;4996613;28;20466;-52
2021/10/21 09:10:53;;;;;;;1.60;0.73;;;14.20;99.90;;;;;;4996062;28;20938;-55
2021/10/21 09:13:23;;;;;;;1.57;0.70;;;14.30;99.90;;;;;;4994806;28;20456;-50
2021/10/21 09:15:51;;;;;;;1.93;0.60;;;14.20;99.90;;;;;;4996853;28;20810;-54
2021/10/21 09:18:17;;;;;;;2.70;0.67;;;14.00;99.90;;;;;;4996635;28;20439;-54
2021/10/21 09:20:43;;;;;;;1.30;0.70;;;13.90;99.90;;;;;;4996443;28;20448;-54
2021/10/21 09:23:11;;;;;;;4.00;0.80;;;13.80;99.90;;;;;;4996346;28;20429;-53
2021/10/21 09:25:39;;;;;;;2.60;1.27;;;13.90;99.90;;;;;;4996208;28;20416;-55
2021/10/21 09:28:27;;;;;;;2.00;0.50;;;13.90;99.90;;;;;;4996793;28;20758;-53
2021/10/21 09:31:04;;;;;;;1.87;0.70;;;14.00;99.90;;;;;;4996782;28;20871;-56
2021/10/21 09:33:43;;;;;;;1.03;0.70;;;14.00;99.90;;;;;;4995935;28;20849;-54
2021/10/21 09:36:08;;;;;;;2.70;1.27;;;14.10;99.90;;;;;;4996386;28;20405;-54
2021/10/21 09:38:34;;;;;;;3.07;0.90;;;14.20;99.90;;;;;;4996021;28;20400;-53
2021/10/21 09:41:18;;;;;;;1.77;0.80;;;14.30;99.90;;;;;;4995868;28;20210;-53
2021/10/21 09:43:45;;;;;;;1.10;0.60;;;14.20;99.90;;;;;;4995929;28;20207;-52
2021/10/21 09:46:42;;;;;;;1.13;0.60;;;14.10;99.90;;;;;;4997003;28;20413;-56
2021/10/21 09:49:34;;;;;;;3.13;0.80;;;13.90;99.90;;;;;;4995103;28;20892;-53
2021/10/21 09:52:04;;;;;;;1.77;0.60;;;13.90;99.90;;;;;;4996455;28;20418;-53
2021/10/21 09:54:30;;;;;;;2.00;0.50;;;14.10;99.90;;;;;;4995946;28;20418;-56
2021/10/21 09:57:00;;;;;;;2.07;0.70;;;14.10;99.90;;;;;;4996807;28;20421;-53
2021/10/21 09:59:36;;;;;;;2.20;0.53;;;14.20;99.90;;;;;;4995698;28;20387;-53
2021/10/21 10:02:15;;;;;;;2.03;0.80;;;14.20;99.90;;;;;;4994261;28;20492;-53
2021/10/21 10:04:47;;;;;;;3.97;0.80;;;14.10;99.90;;;;;;4995504;28;20941;-54
2021/10/21 10:07:13;;;;;;;1.30;1.00;;;14.10;99.90;;;;;;4995867;28;20443;-51
2021/10/21 10:09:39;;;;;;;1.70;0.60;;;14.10;99.90;;;;;;4995129;28;20886;-53
2021/10/21 10:12:08;;;;;;;1.27;0.93;;;14.20;99.90;;;;;;4995191;28;20248;-56
2021/10/21 10:14:39;;;;;;;1.30;0.90;;;14.40;99.90;;;;;;4995400;28;20503;-54
2021/10/21 10:17:04;;;;;;;3.70;0.80;;;14.40;99.90;;;;;;4995652;28;20791;-55
2021/10/21 10:19:32;;;;;;;3.37;1.17;;;14.40;99.90;;;;;;4994919;28;20413;-53
2021/10/21 10:22:01;;;;;;;1.47;0.80;;;14.70;99.90;;;;;;4995322;28;20250;-55
2021/10/21 10:24:32;;;;;;;3.13;0.97;;;14.60;99.90;;;;;;4995314;28;20424;-57
2021/10/21 10:26:59;;;;;;;2.70;1.00;;;14.70;99.90;;;;;;4994150;28;20425;-53
2021/10/21 10:29:31;;;;;;;1.80;0.83;;;14.60;99.90;;;;;;4995419;28;20405;-53
2021/10/21 10:31:59;;;;;;;3.70;0.90;;;14.70;99.90;;;;;;4995219;28;20929;-53
2021/10/21 10:34:34;;;;;;;5.57;1.10;;;14.80;99.90;;;;;;5021903;23;20506;-55
2021/10/21 10:37:21;;;;;;;2.63;0.80;;;14.90;99.80;;;;;;4996498;28;20452;-56
2021/10/21 10:39:57;;;;;;;3.03;1.00;;;15.00;99.70;;;;;;4994769;28;20781;-52
2021/10/21 10:42:29;;;;;;;1.67;1.10;;;15.10;99.40;;;;;;4995220;28;20762;-52
2021/10/21 10:44:55;;;;;;;2.07;0.77;;;15.20;99.70;;;;;;4995397;28;20411;-52
2021/10/21 10:47:47;;;;;;;3.20;1.00;;;15.30;99.60;;;;;;4995274;28;20403;-51
2021/10/21 10:50:22;;;;;;;2.27;0.80;;;15.60;99.50;;;;;;4989748;28;20186;-53
2021/10/21 10:52:59;;;;;;;1.57;0.73;;;16.20;98.60;;;;;;4995479;28;20536;-52
2021/10/21 10:55:42;;;;;;;2.00;1.07;;;16.40;97.80;;;;;;4994954;28;20959;-53
2021/10/21 10:58:15;;;;;;;1.40;0.60;;;16.80;98.70;;;;;;4995106;28;20464;-55
2021/10/21 11:00:48;;;;;;;2.13;0.80;;;16.40;98.00;;;;;;4995148;28;20446;-53
2021/10/21 11:03:31;;;;;;;1.93;0.80;;;17.00;97.40;;;;;;5001600;28;20437;-52
2021/10/21 11:06:17;;;;;;;2.20;1.00;;;17.80;97.50;;;;;;5014646;28;20982;-53
2021/10/21 11:09:06;;;;;;;3.00;0.93;;;19.20;95.40;;;;;;5014609;28;20476;-56
2021/10/21 11:11:39;;;;;;;4.07;1.43;;;19.40;93.10;;;;;;5015747;28;20856;-54
2021/10/21 11:14:07;;;;;;;3.80;0.97;;;19.10;92.30;;;;;;5015116;28;20533;-56
2021/10/21 11:16:41;;;;;;;2.20;0.93;;;18.40;93.10;;;;;;5016232;28;20399;-55
2021/10/21 11:19:07;;;;;;;2.70;0.97;;;18.00;93.10;;;;;;5019678;28;20467;-53
2021/10/21 11:21:54;;;;;;;3.37;0.80;;;18.50;93.10;;;;;;5017806;28;20403;-54
2021/10/21 11:24:48;;;;;;;1.93;0.90;;;19.30;92.20;;;;;;5016008;28;20779;-52
2021/10/21 11:27:16;;;;;;;1.70;0.80;;;19.30;90.10;;;;;;5017194;28;20391;-56
2021/10/21 11:29:44;;;;;;;4.30;1.30;;;19.00;91.00;;;;;;5017230;28;20405;-57
2021/10/21 11:32:10;;;;;;;2.80;0.93;;;19.90;90.40;;;;;;5017752;28;20430;-52
2021/10/21 11:34:37;;;;;;;2.90;0.90;;;20.50;88.10;;;;;;5015400;28;20943;-52
2021/10/21 11:37:03;;;;;;;3.13;0.80;;;20.30;87.70;;;;;;5014602;28;20407;-53
2021/10/21 11:39:34;;;;;;;4.20;0.93;;;20.40;88.20;;;;;;5014130;28;20414;-53
2021/10/21 11:42:10;;;;;;;2.57;1.00;;;20.30;85.70;;;;;;5014052;28;20383;-51
2021/10/21 11:44:37;;;;;;;1.73;1.00;;;20.60;83.20;;;;;;5014188;28;20426;-52
2021/10/21 11:47:05;;;;;;;3.80;1.00;;;21.20;83.10;;;;;;5013710;28;20537;-52
2021/10/21 11:49:37;;;;;;;2.00;1.10;;;21.10;80.90;;;;;;5008026;28;20458;-47
2021/10/21 11:52:04;;;;;;;2.33;0.80;;;19.70;81.90;;;;;;4994228;28;20441;-46
2021/10/21 11:54:30;;;;;;;2.90;1.20;;;19.50;83.90;;;;;;4993883;28;21159;-52
2021/10/21 11:56:56;;;;;;;3.80;0.93;;;19.30;86.50;;;;;;4992745;28;20404;-51
2021/10/21 11:59:36;;;;;;;1.80;0.80;;;19.40;84.30;;;;;;4994537;28;20161;-51
2021/10/21 12:02:10;;;;;;;5.37;1.03;;;19.00;84.70;;;;;;4994500;28;20545;-52
2021/10/21 12:04:37;;;;;;;3.17;1.30;;;18.30;88.40;;;;;;5012383;28;20593;-53
2021/10/21 12:07:03;;;;;;;2.97;1.00;;;17.70;90.40;;;;;;5017683;28;20406;-52
2021/10/21 12:09:34;;;;;;;3.90;0.97;;;17.40;90.40;;;;;;5015663;28;20417;-44
2021/10/21 12:12:12;;;;;;;3.93;1.10;;;16.60;91.30;;;;;;5014940;28;20421;-46
2021/10/21 12:14:41;;;;;;;1.80;1.03;;;16.60;92.60;;;;;;5015147;28;20430;-46
2021/10/21 12:17:08;;;;;;;1.67;1.03;;;16.90;91.30;;;;;;5014142;28;20435;-49
2021/10/21 12:19:34;;;;;;;2.67;1.20;;;17.30;91.00;;;;;;5014095;28;20399;-46
2021/10/21 12:22:14;;;;;;;2.40;0.90;;;18.50;90.10;;;;;;5013608;28;20404;-47
2021/10/21 12:24:45;;;;;;;5.67;1.83;;;19.20;88.10;;;;;;5013525;28;20419;-47
2021/10/21 12:27:18;;;;;;;2.00;0.80;;;20.90;83.80;;;;;;5013426;28;20470;-46
2021/10/21 12:29:44;;;;;;;1.97;1.00;;;21.20;80.70;;;;;;5013030;28;20385;-55
2021/10/21 12:32:12;;;;;;;1.73;1.00;;;22.10;81.30;;;;;;5012667;28;20415;-51
2021/10/21 12:34:38;;;;;;;2.77;1.03;;;22.80;77.40;;;;;;5012486;28;20469;-56
2021/10/21 12:37:11;;;;;;;3.13;1.20;;;22.80;74.60;;;;;;5013073;28;20415;-56
2021/10/21 12:39:37;;;;;;;2.27;0.73;;;22.20;73.60;;;;;;5013033;28;20754;-56
2021/10/21 12:42:06;;;;;;;1.87;0.90;;;21.60;73.90;;;;;;5012927;28;20481;-54
2021/10/21 12:44:34;;;;;;;2.93;1.20;;;20.90;77.00;;;;;;5012975;28;20274;-53
2021/10/21 12:47:22;;;;;;;2.80;1.03;;;19.50;78.70;;;;;;5012622;28;20478;-51
2021/10/21 12:50:05;;;;;;;2.87;1.10;;;20.50;80.00;;;;;;5012605;28;20403;-56
2021/10/21 12:52:33;;;;;;;2.30;0.90;;;20.40;78.20;;;;;;5012906;28;20445;-54
2021/10/21 12:55:22;;;;;;;2.50;0.80;;;18.70;81.40;;;;;;5013057;28;20403;-52
2021/10/21 12:57:50;;;;;;;2.30;1.03;;;19.10;82.60;;;;;;5012830;28;20749;-56
2021/10/21 13:00:29;;;;;;;1.63;0.97;;;19.60;81.50;;;;;;5013880;28;20403;-52
2021/10/21 13:03:12;;;;;;;2.40;1.13;;;19.60;81.70;;;;;;5015823;28;20489;-55
2021/10/21 13:05:39;;;;;;;1.67;0.80;;;20.70;81.00;;;;;;5016278;28;20475;-56
2021/10/21 13:08:07;;;;;;;1.47;0.80;;;21.30;80.20;;;;;;5016383;28;20427;-53
2021/10/21 13:10:33;;;;;;;2.50;0.87;;;22.00;76.70;;;;;;5016163;28;20946;-56
2021/10/21 13:12:59;;;;;;;1.50;0.73;;;22.10;77.10;;;;;;5015933;28;20462;-53